createdAt,value
2019-05-06T00:02:57.395Z,13.05
2019-05-06T00:07:59.164Z,13.98
2019-05-06T00:13:00.698Z,14.23
2019-05-06T00:18:04.244Z,16.75
2019-05-06T00:23:16.295Z,14.45
2019-05-06T00:28:25.172Z,19.73
2019-05-06T00:33:26.550Z,12.55
2019-05-06T00:38:29.386Z,15.13
2019-05-06T00:43:34.524Z,14.93
2019-05-06T00:48:35.872Z,16.57
2019-05-06T00:53:39.074Z,20.20
2019-05-06T00:58:40.434Z,16.07
2019-05-06T01:03:41.723Z,15.58
2019-05-06T01:08:44.023Z,21.80
2019-05-06T01:13:47.372Z,21.33
2019-05-06T01:18:48.642Z,21.82
2019-05-06T01:23:49.931Z,23.42
2019-05-06T01:28:51.208Z,23.75
2019-05-06T01:33:53.535Z,27.75
2019-05-06T01:39:00.008Z,27.00
2019-05-06T01:44:01.280Z,36.10
2019-05-06T01:49:05.640Z,32.05
2019-05-06T01:54:08.291Z,79.72
2019-05-06T01:59:09.607Z,25.52
2019-05-06T02:04:11.073Z,26.00
2019-05-06T02:09:14.941Z,23.18
2019-05-06T02:14:17.637Z,22.50
2019-05-06T02:19:19.010Z,21.77
2019-05-06T02:24:25.107Z,24.75
2019-05-06T02:29:28.690Z,20.97
2019-05-06T02:34:37.801Z,20.00
2019-05-06T02:39:43.572Z,24.70
2019-05-06T02:44:44.556Z,19.57
2019-05-06T02:49:53.269Z,16.42
2019-05-06T02:54:53.923Z,19.92
2019-05-06T02:59:55.898Z,22.58
2019-05-06T03:05:00.061Z,18.90
2019-05-06T03:10:14.470Z,27.13
2019-05-06T03:15:16.841Z,21.68
2019-05-06T03:20:56.766Z,20.70
2019-05-06T03:25:58.047Z,23.95
2019-05-06T03:31:07.557Z,24.27
2019-05-06T03:36:21.316Z,21.10
2019-05-06T03:41:13.936Z,20.20
2019-05-06T03:46:19.233Z,15.13
2019-05-06T03:51:23.353Z,21.77
2019-05-06T03:56:26.127Z,16.87
2019-05-06T04:01:28.100Z,22.77
2019-05-06T04:06:33.263Z,25.27
2019-05-06T04:11:37.014Z,19.55
2019-05-06T04:16:43.751Z,19.75
2019-05-06T04:21:47.489Z,18.12
2019-05-06T04:27:02.853Z,23.05
2019-05-06T04:32:09.011Z,19.42
2019-05-06T04:37:14.434Z,26.97
2019-05-06T04:42:15.657Z,17.27
2019-05-06T04:47:16.902Z,21.10
2019-05-06T04:52:22.800Z,22.48
2019-05-06T04:57:27.023Z,17.73
2019-05-06T05:02:28.312Z,21.62
2019-05-06T05:07:33.391Z,18.87
2019-05-06T05:12:39.881Z,23.22
2019-05-06T05:17:52.571Z,17.23
2019-05-06T05:22:56.594Z,20.70
2019-05-06T05:27:57.950Z,16.75
2019-05-06T05:33:02.599Z,18.20
2019-05-06T05:38:05.838Z,17.40
2019-05-06T05:43:09.387Z,18.92
2019-05-06T05:48:23.376Z,20.60
2019-05-06T05:53:26.769Z,22.80
2019-05-06T05:58:30.134Z,18.80
2019-05-06T06:03:32.527Z,19.98
2019-05-06T06:08:36.846Z,19.67
2019-05-06T06:13:39.399Z,16.20
2019-05-06T06:18:55.057Z,17.95
2019-05-06T06:24:13.780Z,23.00
2019-05-06T06:29:15.725Z,24.43
2019-05-06T06:34:19.419Z,21.30
2019-05-06T06:39:22.922Z,18.60
2019-05-06T06:44:33.117Z,20.08
2019-05-06T06:49:36.755Z,17.25
2019-05-06T06:54:45.033Z,17.73
2019-05-06T06:59:52.231Z,22.40
2019-05-06T07:05:02.801Z,20.52
2019-05-06T07:10:05.618Z,18.62
2019-05-06T07:15:07.094Z,20.10
2019-05-06T07:20:10.619Z,19.77
2019-05-06T07:25:12.820Z,17.52
2019-05-06T07:30:14.703Z,9.35
2019-05-06T07:35:16.103Z,6.60
2019-05-06T07:40:22.114Z,7.90
2019-05-06T07:45:28.488Z,7.45
2019-05-06T07:50:29.850Z,7.33
2019-05-06T07:55:32.741Z,6.72
2019-05-06T08:00:36.604Z,7.72
2019-05-06T08:05:51.571Z,8.18
2019-05-06T08:10:44.132Z,8.23
2019-05-06T08:15:45.626Z,11.88
2019-05-06T08:20:48.207Z,15.20
2019-05-06T08:25:54.367Z,19.90
2019-05-06T08:30:54.674Z,20.50
2019-05-06T08:36:08.946Z,25.55
2019-05-06T08:41:02.726Z,26.35
2019-05-06T08:46:04.271Z,26.90
2019-05-06T08:51:09.188Z,25.43
2019-05-06T08:56:16.489Z,27.07
2019-05-06T09:01:22.425Z,21.85
2019-05-06T09:06:30.162Z,26.87
2019-05-06T09:11:32.211Z,27.13
2019-05-06T09:16:36.352Z,26.40
2019-05-06T09:21:37.959Z,25.68
2019-05-06T09:26:43.270Z,27.65
2019-05-06T09:31:49.193Z,28.02
2019-05-06T09:37:09.042Z,28.20
2019-05-06T09:42:12.849Z,28.62
2019-05-06T09:47:23.010Z,32.80
2019-05-06T09:52:24.577Z,38.92
2019-05-06T09:57:29.882Z,30.48
2019-05-06T10:02:32.569Z,27.32
2019-05-06T10:07:35.176Z,23.38
2019-05-06T10:12:38.475Z,28.75
2019-05-06T10:17:42.743Z,24.57
2019-05-06T10:22:43.698Z,24.65
2019-05-06T10:27:47.320Z,24.45
2019-05-06T10:33:12.083Z,27.42
2019-05-06T10:38:38.598Z,22.75
2019-05-06T10:43:52.552Z,27.98
2019-05-06T10:48:56.124Z,26.57
2019-05-06T10:53:57.427Z,24.55
2019-05-06T10:59:02.465Z,33.28
2019-05-06T11:04:04.127Z,26.75
2019-05-06T11:09:08.596Z,29.18
2019-05-06T11:14:13.831Z,28.12
2019-05-06T11:19:15.153Z,30.40
2019-05-06T11:24:16.561Z,32.23
2019-05-06T11:29:19.759Z,37.58
2019-05-06T11:34:22.934Z,31.20
2019-05-06T11:39:24.394Z,37.30
2019-05-06T11:44:27.672Z,19.23
2019-05-06T11:49:29.050Z,14.63
2019-05-06T11:54:30.487Z,16.97
2019-05-06T11:59:32.453Z,15.72
2019-05-06T12:04:34.062Z,21.80
2019-05-06T12:09:37.069Z,58.85
2019-05-06T12:14:38.503Z,43.85
2019-05-06T12:19:39.862Z,40.10
2019-05-06T12:24:43.085Z,49.98
2019-05-06T12:29:44.580Z,38.55
2019-05-06T12:34:46.044Z,34.80
2019-05-06T12:39:49.261Z,31.55
2019-05-06T12:44:52.940Z,29.90
2019-05-06T12:49:54.451Z,33.33
2019-05-06T12:55:14.742Z,32.78
2019-05-06T12:59:59.816Z,30.55
2019-05-06T13:05:04.037Z,25.08
2019-05-06T13:10:06.509Z,27.35
2019-05-06T13:15:08.356Z,22.62
2019-05-06T13:20:14.463Z,24.92
2019-05-06T13:25:14.351Z,26.30
2019-05-06T13:30:17.736Z,22.58
2019-05-06T13:35:23.145Z,23.10
2019-05-06T13:40:27.128Z,22.77
2019-05-06T13:45:27.944Z,25.62
2019-05-06T13:50:32.277Z,26.02
2019-05-06T13:55:33.621Z,24.87
2019-05-06T14:00:37.258Z,24.55
2019-05-06T14:05:38.558Z,21.57
2019-05-06T14:10:42.138Z,18.40
2019-05-06T14:15:44.243Z,18.37
2019-05-06T14:20:47.821Z,17.90
2019-05-06T14:26:07.708Z,18.57
2019-05-06T14:31:14.020Z,20.70
2019-05-06T14:41:17.552Z,17.12
2019-05-06T14:46:19.058Z,14.13
2019-05-06T14:51:22.253Z,14.15
2019-05-06T14:56:39.442Z,19.48
2019-05-06T15:01:53.679Z,18.70
2019-05-06T15:06:56.201Z,19.55
2019-05-06T15:11:57.474Z,15.00
2019-05-06T15:17:02.203Z,14.98
2019-05-06T15:22:03.980Z,16.48
2019-05-06T15:27:07.695Z,11.43
2019-05-06T15:32:12.992Z,14.18
2019-05-06T15:37:47.069Z,19.55
2019-05-06T15:42:48.382Z,11.90
2019-05-06T15:47:52.298Z,11.68
2019-05-06T15:52:54.062Z,9.75
2019-05-06T15:57:56.012Z,10.43
2019-05-06T16:02:58.673Z,7.00
2019-05-06T16:08:00.076Z,6.70
2019-05-06T16:13:03.051Z,7.60
2019-05-06T16:18:04.847Z,9.15
2019-05-06T16:23:24.238Z,8.43
2019-05-06T16:28:25.610Z,8.23
2019-05-06T16:33:26.904Z,8.75
2019-05-06T16:38:28.186Z,9.70
2019-05-06T16:43:48.447Z,10.78
2019-05-06T16:48:52.309Z,10.80
2019-05-06T16:53:52.913Z,12.60
2019-05-06T16:59:03.027Z,13.58
2019-05-06T17:04:14.513Z,16.35
2019-05-06T17:09:20.934Z,13.45
2019-05-06T17:14:18.920Z,10.93
2019-05-06T17:19:20.307Z,12.35
2019-05-06T17:24:22.072Z,13.48
2019-05-06T17:29:46.702Z,13.18
2019-05-06T17:34:52.571Z,12.75
2019-05-06T17:40:07.086Z,12.05
2019-05-06T17:44:56.766Z,16.40
2019-05-06T17:49:58.048Z,12.63
2019-05-06T17:55:02.904Z,19.75
2019-05-06T18:00:05.982Z,10.45
2019-05-06T18:05:07.770Z,16.27
2019-05-06T18:10:09.454Z,14.07
2019-05-06T18:15:13.380Z,15.35
2019-05-06T18:20:35.360Z,14.98
2019-05-06T18:25:36.632Z,10.63
2019-05-06T18:30:39.561Z,12.37
2019-05-06T18:35:42.122Z,13.50
2019-05-06T18:40:46.649Z,15.85
2019-05-06T18:45:48.164Z,17.55
2019-05-06T18:50:52.018Z,17.57
2019-05-06T18:55:57.375Z,15.85
2019-05-06T19:01:03.777Z,20.68
2019-05-06T19:06:09.049Z,18.82
2019-05-06T19:11:14.346Z,19.20
2019-05-06T19:16:16.037Z,17.73
2019-05-06T19:21:17.327Z,20.45
2019-05-06T19:26:18.691Z,18.65
2019-05-06T19:31:22.798Z,20.55
2019-05-06T19:36:26.218Z,19.20
2019-05-06T19:41:27.845Z,19.67
2019-05-06T19:46:30.146Z,20.40
2019-05-06T19:51:33.036Z,18.85
2019-05-06T19:56:34.655Z,21.17
2019-05-06T20:01:36.076Z,25.02
2019-05-06T20:06:42.184Z,23.07
2019-05-06T20:11:44.730Z,20.88
2019-05-06T20:16:47.063Z,24.87
2019-05-06T20:21:52.636Z,21.10
2019-05-06T20:26:54.875Z,21.93
2019-05-06T20:31:56.233Z,21.05
2019-05-06T20:36:57.506Z,17.30
2019-05-06T20:42:02.743Z,16.12
2019-05-06T20:47:22.142Z,17.52
2019-05-06T20:52:23.581Z,14.73
2019-05-06T20:57:25.027Z,16.75
2019-05-06T21:02:26.337Z,24.72
2019-05-06T21:07:28.011Z,33.00
2019-05-06T21:12:31.226Z,30.17
2019-05-06T21:17:32.967Z,20.60
2019-05-06T21:22:34.678Z,22.55
2019-05-06T21:27:36.491Z,27.50
2019-05-06T21:32:39.799Z,25.57
2019-05-06T21:37:42.224Z,23.60
2019-05-06T21:42:45.742Z,28.25
2019-05-06T21:47:47.109Z,37.53
2019-05-06T21:52:48.456Z,28.50
2019-05-06T21:57:49.746Z,22.10
2019-05-06T22:02:52.990Z,23.02
2019-05-06T22:07:54.564Z,26.02
2019-05-06T22:12:56.196Z,35.28
2019-05-06T22:17:57.874Z,27.17
2019-05-06T22:22:59.380Z,22.65
2019-05-06T22:28:02.509Z,23.18
2019-05-06T22:33:03.810Z,23.25
2019-05-06T22:38:05.256Z,21.20
2019-05-06T22:43:06.872Z,24.00
2019-05-06T22:48:08.243Z,23.05
2019-05-06T22:53:09.505Z,25.85
2019-05-06T22:58:11.980Z,22.82
2019-05-06T23:03:15.420Z,27.37
2019-05-06T23:08:17.564Z,24.72
2019-05-06T23:13:18.846Z,25.92
2019-05-06T23:18:22.281Z,20.02
2019-05-06T23:23:24.030Z,22.30
2019-05-06T23:28:27.194Z,24.57
2019-05-06T23:33:28.549Z,27.62
2019-05-06T23:39:27.589Z,23.32
2019-05-06T23:45:25.356Z,21.57
2019-05-06T23:51:23.166Z,24.37
2019-05-06T23:56:43.980Z,22.35
